Time;durP1;ratioP1;P1;durP2;ratioP2;P2;SDS_P1;SDS_P2;PMS_P1;PMS_P2;Temp;Humidity;BMP_temperature;BMP_pressure;BME280_temperature;BME280_humidity;BME280_pressure;Samples;Min_cycle;Max_cycle;Signal;HPM_P1;HPM_P2
2023/01/21 00:02:10;;;;;;;;;;;8.10;99.90;;;;;;5073670;28;19927;-74
2023/01/21 00:04:37;;;;;;;;;;;8.10;99.90;;;;;;5074001;28;19916;-74
2023/01/21 00:07:03;;;;;;;;;;;8.10;99.90;;;;;;5055427;28;20395;-74
2023/01/21 00:09:30;;;;;;;;;;;8.10;99.90;;;;;;5073534;28;19952;-74
2023/01/21 00:12:01;;;;;;;;;;;8.00;99.90;;;;;;5073618;28;19926;-73
2023/01/21 00:14:30;;;;;;;;;;;8.00;99.90;;;;;;5073257;28;19985;-73
2023/01/21 00:16:57;;;;;;;;;;;7.90;99.90;;;;;;5073602;28;19996;-73
2023/01/21 00:19:23;;;;;;;;;;;7.90;99.90;;;;;;5072437;28;19996;-74
2023/01/21 00:21:49;;;;;;;;;;;7.90;99.90;;;;;;5055247;28;19957;-73
2023/01/21 00:24:15;;;;;;;;;;;8.00;99.90;;;;;;5073288;28;19958;-69
2023/01/21 00:26:41;;;;;;;;;;;7.90;99.90;;;;;;5067368;28;20382;-73
2023/01/21 00:29:09;;;;;;;;;;;8.00;99.90;;;;;;5073343;28;19916;-73
2023/01/21 00:31:36;;;;;;;;;;;8.00;99.90;;;;;;5072926;28;19920;-74
2023/01/21 00:34:02;;;;;;;;;;;8.00;99.90;;;;;;5073172;28;19908;-73
2023/01/21 00:36:28;;;;;;;;;;;8.00;99.90;;;;;;5055719;28;19904;-74
2023/01/21 00:38:55;;;;;;;;;;;8.10;99.90;;;;;;5073185;28;19931;-73
2023/01/21 00:41:20;;;;;;;;;;;8.10;99.90;;;;;;5072896;28;19905;-73
2023/01/21 00:43:46;;;;;;;;;;;8.10;99.90;;;;;;5072985;28;20434;-73
2023/01/21 00:46:12;;;;;;;;;;;8.00;99.90;;;;;;5072599;28;20386;-73
2023/01/21 00:48:39;;;;;;;;;;;8.00;99.90;;;;;;5072782;28;19911;-73
2023/01/21 00:51:05;;;;;;;;;;;8.00;99.90;;;;;;5072691;28;19926;-73
2023/01/21 00:53:32;;;;;;;;;;;8.00;99.90;;;;;;5072434;28;20317;-69
2023/01/21 00:56:01;;;;;;;;;;;7.90;99.90;;;;;;5072614;28;19904;-70
2023/01/21 00:58:27;;;;;;;;;;;8.00;99.90;;;;;;5072872;28;20297;-73
2023/01/21 01:01:01;;;;;;;;;;;8.10;99.90;;;;;;5072441;28;19950;-69
2023/01/21 01:03:27;;;;;;;;;;;8.20;99.90;;;;;;5072411;28;19913;-73
2023/01/21 01:05:53;;;;;;;;;;;8.20;99.90;;;;;;5072979;28;20007;-73
2023/01/21 01:08:19;;;;;;;;;;;8.20;99.90;;;;;;5071768;28;19908;-73
2023/01/21 01:10:44;;;;;;;;;;;8.20;99.90;;;;;;5072426;28;20342;-73
2023/01/21 01:13:11;;;;;;;;;;;8.20;99.90;;;;;;5071933;28;19958;-73
2023/01/21 01:15:36;;;;;;;;;;;8.10;99.90;;;;;;5072186;28;20094;-73
2023/01/21 01:18:02;;;;;;;;;;;8.10;99.90;;;;;;5072303;28;20036;-73
2023/01/21 01:20:28;;;;;;;;;;;7.90;99.90;;;;;;5072656;28;20046;-73
2023/01/21 01:22:54;;;;;;;;;;;7.90;99.90;;;;;;5072135;28;20245;-74
2023/01/21 01:25:20;;;;;;;;;;;7.80;99.90;;;;;;5072506;28;20371;-74
2023/01/21 01:27:45;;;;;;;;;;;7.80;99.90;;;;;;5072171;28;20001;-73
2023/01/21 01:30:11;;;;;;;;;;;7.70;99.90;;;;;;5071883;28;20340;-72
2023/01/21 01:32:38;;;;;;;;;;;7.70;99.90;;;;;;5072448;28;19916;-73
2023/01/21 01:35:04;;;;;;;;;;;7.70;99.90;;;;;;5054015;28;19905;-73
2023/01/21 01:37:30;;;;;;;;;;;7.70;99.90;;;;;;5072177;28;20271;-73
2023/01/21 01:39:56;;;;;;;;;;;7.80;99.90;;;;;;5054210;28;19935;-70
2023/01/21 01:42:21;;;;;;;;;;;7.80;99.90;;;;;;5071939;28;19927;-73
2023/01/21 01:44:58;;;;;;;;;;;7.80;99.90;;;;;;5071435;28;19966;-73
2023/01/21 01:47:29;;;;;;;;;;;7.90;99.90;;;;;;5071787;28;20328;-73
2023/01/21 01:49:55;;;;;;;;;;;7.90;99.90;;;;;;5071829;28;19908;-73
2023/01/21 01:52:21;;;;;;;;;;;7.90;99.90;;;;;;5071877;28;20019;-72
2023/01/21 01:54:50;;;;;;;;;;;7.90;99.90;;;;;;5071872;28;19904;-73
2023/01/21 01:57:17;;;;;;;;;;;7.80;99.90;;;;;;5071565;28;20414;-73
2023/01/21 01:59:44;;;;;;;;;;;7.80;99.90;;;;;;5071701;28;19905;-73
2023/01/21 02:02:15;;;;;;;;;;;7.80;99.90;;;;;;5071882;28;19947;-72
2023/01/21 02:04:43;;;;;;;;;;;7.80;99.90;;;;;;5071524;28;19919;-73
2023/01/21 02:07:09;;;;;;;;;;;7.80;99.90;;;;;;5071973;28;19994;-73
2023/01/21 02:09:35;;;;;;;;;;;7.80;99.90;;;;;;5071626;28;19904;-72
2023/01/21 02:12:02;;;;;;;;;;;7.80;99.90;;;;;;5071598;28;19993;-73
2023/01/21 02:14:30;;;;;;;;;;;7.80;99.90;;;;;;5071459;28;19970;-73
2023/01/21 02:16:58;;;;;;;;;;;7.90;99.90;;;;;;5053358;28;19960;-72
2023/01/21 02:19:41;;;;;;;;;;;7.90;99.90;;;;;;5071866;28;20351;-69
2023/01/21 02:22:25;;;;;;;;;;;7.90;99.90;;;;;;5074297;28;19904;-70
2023/01/21 02:24:57;;;;;;;;;;;7.90;99.90;;;;;;5058050;28;19912;-69
2023/01/21 02:27:39;;;;;;;;;;;7.90;99.90;;;;;;5068690;28;20373;-73
2023/01/21 02:30:21;;;;;;;;;;;7.90;99.90;;;;;;5077367;28;19911;-73
2023/01/21 02:32:59;;;;;;;;;;;7.80;99.90;;;;;;5095788;28;19916;-73
2023/01/21 02:35:54;;;;;;;;;;;7.80;99.90;;;;;;5095754;28;19904;-73
2023/01/21 02:38:31;;;;;;;;;;;7.80;99.90;;;;;;5077956;28;19949;-73
2023/01/21 02:40:59;;;;;;;;;;;7.80;99.90;;;;;;5095779;28;19912;-71
2023/01/21 02:43:33;;;;;;;;;;;7.70;99.90;;;;;;5095549;28;19912;-72
2023/01/21 02:46:04;;;;;;;;;;;7.70;99.90;;;;;;5037314;28;19905;-73
2023/01/21 02:48:39;;;;;;;;;;;7.70;99.90;;;;;;5055315;28;19905;-73
2023/01/21 02:51:05;;;;;;;;;;;7.60;99.90;;;;;;5055195;28;19967;-73
2023/01/21 02:53:33;;;;;;;;;;;7.70;99.90;;;;;;5055572;28;19908;-73
2023/01/21 02:56:04;;;;;;;;;;;7.70;99.90;;;;;;5054997;28;19915;-73
2023/01/21 02:58:32;;;;;;;;;;;7.70;99.90;;;;;;5055034;28;20402;-73
2023/01/21 03:00:58;;;;;;;;;;;7.80;99.90;;;;;;5054940;28;20301;-72
2023/01/21 03:03:23;;;;;;;;;;;7.80;99.90;;;;;;5054695;28;19983;-73
2023/01/21 03:05:50;;;;;;;;;;;7.80;99.90;;;;;;5055119;28;20259;-73
2023/01/21 03:08:29;;;;;;;;;;;7.80;99.90;;;;;;5055028;28;19994;-73
2023/01/21 03:11:08;;;;;;;;;;;7.70;99.90;;;;;;5055276;28;20228;-72
2023/01/21 03:16:55;;;;;;;;;;;7.80;99.90;;;;;;5073589;28;19911;-73
2023/01/21 03:19:24;;;;;;;;;;;7.80;99.90;;;;;;5074703;28;20006;-73
2023/01/21 03:21:51;;;;;;;;;;;7.90;99.90;;;;;;5074418;28;19934;-73
2023/01/21 03:24:26;;;;;;;;;;;7.90;99.90;;;;;;5074549;28;19963;-72
2023/01/21 03:26:54;;;;;;;;;;;7.90;99.90;;;;;;5056849;28;20359;-71
2023/01/21 03:29:21;;;;;;;;;;;7.90;99.90;;;;;;5055506;28;19904;-73
2023/01/21 03:31:49;;;;;;;;;;;7.90;99.90;;;;;;5072156;28;19968;-74
2023/01/21 03:34:16;;;;;;;;;;;7.90;99.90;;;;;;5074325;28;19998;-73
2023/01/21 03:36:52;;;;;;;;;;;8.00;99.90;;;;;;5074450;28;19908;-72
2023/01/21 03:39:23;;;;;;;;;;;7.90;99.90;;;;;;5074116;28;19940;-73
2023/01/21 03:41:49;;;;;;;;;;;8.00;99.90;;;;;;5055975;28;19965;-73
2023/01/21 03:44:15;;;;;;;;;;;7.90;99.90;;;;;;5074117;28;19912;-74
2023/01/21 03:47:02;;;;;;;;;;;7.90;99.90;;;;;;5073906;28;19904;-73
2023/01/21 03:49:31;;;;;;;;;;;7.80;99.90;;;;;;5074270;28;19910;-71
2023/01/21 03:51:59;;;;;;;;;;;7.80;99.90;;;;;;5073935;28;19904;-73
2023/01/21 03:54:25;;;;;;;;;;;7.80;99.90;;;;;;5073986;28;19905;-73
2023/01/21 03:56:51;;;;;;;;;;;7.80;99.90;;;;;;5074386;28;19975;-73
2023/01/21 03:59:17;;;;;;;;;;;7.90;99.90;;;;;;5073707;28;19904;-73
2023/01/21 04:01:43;;;;;;;;;;;7.90;99.90;;;;;;5074150;28;19911;-72
2023/01/21 04:04:09;;;;;;;;;;;7.90;99.90;;;;;;5074399;28;19919;-73
2023/01/21 04:06:35;;;;;;;;;;;8.00;99.90;;;;;;5074660;28;19950;-73
2023/01/21 04:09:02;;;;;;;;;;;8.00;99.90;;;;;;5074464;28;19970;-73
2023/01/21 04:11:28;;;;;;;;;;;8.00;99.90;;;;;;5074797;28;20271;-73
2023/01/21 04:13:54;;;;;;;;;;;7.90;99.90;;;;;;5074575;28;19904;-73
2023/01/21 04:16:20;;;;;;;;;;;7.80;99.90;;;;;;5074266;28;19967;-73
2023/01/21 04:18:46;;;;;;;;;;;7.70;99.90;;;;;;5074891;28;19904;-72
2023/01/21 04:21:13;;;;;;;;;;;7.70;99.90;;;;;;5074186;28;19905;-73
2023/01/21 04:23:39;;;;;;;;;;;7.70;99.90;;;;;;5074356;28;20026;-73
2023/01/21 04:26:06;;;;;;;;;;;7.80;99.90;;;;;;5074485;28;20002;-73
2023/01/21 04:28:32;;;;;;;;;;;7.70;99.90;;;;;;5074727;28;19954;-72
2023/01/21 04:30:58;;;;;;;;;;;7.70;99.90;;;;;;5074305;28;19904;-74
2023/01/21 04:33:25;;;;;;;;;;;7.70;99.90;;;;;;5074066;28;20378;-73
2023/01/21 04:35:58;;;;;;;;;;;7.60;99.90;;;;;;5074705;28;19910;-73
2023/01/21 04:38:24;;;;;;;;;;;7.60;99.90;;;;;;5056473;28;19935;-72
2023/01/21 04:40:49;;;;;;;;;;;7.60;99.90;;;;;;5073868;28;20356;-72
2023/01/21 04:43:15;;;;;;;;;;;7.60;99.90;;;;;;5074188;28;19913;-73
2023/01/21 04:45:42;;;;;;;;;;;7.60;99.90;;;;;;5056025;28;19915;-70
2023/01/21 04:48:08;;;;;;;;;;;7.60;99.90;;;;;;5054587;28;19991;-73
2023/01/21 04:50:33;;;;;;;;;;;7.70;99.90;;;;;;5054063;28;20280;-73
2023/01/21 04:52:59;;;;;;;;;;;7.70;99.90;;;;;;5053992;28;19958;-74
2023/01/21 04:55:25;;;;;;;;;;;7.80;99.90;;;;;;5053910;28;19916;-73
2023/01/21 04:57:51;;;;;;;;;;;7.80;99.90;;;;;;5053985;28;20376;-74
2023/01/21 05:00:17;;;;;;;;;;;7.80;99.90;;;;;;5053705;28;20376;-74
2023/01/21 05:02:42;;;;;;;;;;;7.80;99.90;;;;;;5054187;28;19956;-73
2023/01/21 05:05:08;;;;;;;;;;;7.70;99.90;;;;;;5054161;28;19904;-74
2023/01/21 05:07:34;;;;;;;;;;;7.70;99.90;;;;;;5053819;28;19970;-73
2023/01/21 05:10:00;;;;;;;;;;;7.70;99.90;;;;;;5054264;28;19905;-73
2023/01/21 05:12:26;;;;;;;;;;;7.70;99.90;;;;;;5053627;28;20280;-74
2023/01/21 05:14:53;;;;;;;;;;;7.70;99.90;;;;;;5053606;28;19927;-73
2023/01/21 05:17:20;;;;;;;;;;;7.70;99.90;;;;;;5053704;28;19909;-73
2023/01/21 05:19:45;;;;;;;;;;;7.70;99.90;;;;;;5054176;28;20352;-73
2023/01/21 05:22:11;;;;;;;;;;;7.80;99.90;;;;;;5053948;28;19905;-76
2023/01/21 05:24:37;;;;;;;;;;;8.00;99.90;;;;;;5053687;28;19924;-73
2023/01/21 05:27:03;;;;;;;;;;;8.20;99.90;;;;;;5053155;28;19971;-72
2023/01/21 05:29:28;;;;;;;;;;;8.20;99.90;;;;;;5053770;28;19909;-77
2023/01/21 05:31:55;;;;;;;;;;;8.30;99.90;;;;;;5062612;28;19951;-76
2023/01/21 05:34:21;;;;;;;;;;;8.30;99.90;;;;;;5074308;28;19930;-77
2023/01/21 05:36:47;;;;;;;;;;;8.30;99.90;;;;;;5063530;28;19908;-71
2023/01/21 05:39:13;;;;;;;;;;;8.40;99.90;;;;;;5066383;28;20272;-75
2023/01/21 05:41:38;;;;;;;;;;;8.30;99.90;;;;;;5067761;28;19904;-77
2023/01/21 05:44:04;;;;;;;;;;;8.20;99.90;;;;;;5039922;28;19919;-76
2023/01/21 05:46:32;;;;;;;;;;;8.20;99.90;;;;;;5063116;28;19935;-73
2023/01/21 05:48:58;;;;;;;;;;;8.20;99.90;;;;;;5060640;28;19904;-76
2023/01/21 05:51:24;;;;;;;;;;;8.20;99.90;;;;;;5062415;28;20043;-76
2023/01/21 05:53:52;;;;;;;;;;;8.20;99.90;;;;;;5061432;28;19905;-71
2023/01/21 05:56:19;;;;;;;;;;;8.30;99.90;;;;;;5059888;28;19912;-70
2023/01/21 05:58:44;;;;;;;;;;;8.30;99.90;;;;;;5062178;28;19904;-75
2023/01/21 06:01:16;;;;;;;;;;;8.30;99.90;;;;;;5063024;28;20018;-73
2023/01/21 06:03:43;;;;;;;;;;;8.30;99.90;;;;;;5061916;28;19917;-73
2023/01/21 06:06:09;;;;;;;;;;;8.20;99.90;;;;;;5061671;28;19904;-76
2023/01/21 06:08:35;;;;;;;;;;;8.30;99.90;;;;;;5063110;28;19911;-73
2023/01/21 06:11:01;;;;;;;;;;;8.20;99.90;;;;;;5071290;28;19927;-76
2023/01/21 06:13:27;;;;;;;;;;;8.30;99.90;;;;;;5074121;28;20221;-79
2023/01/21 06:15:54;;;;;;;;;;;8.20;99.90;;;;;;5073119;28;19909;-76
2023/01/21 06:18:20;;;;;;;;;;;8.20;99.90;;;;;;5073210;28;20429;-76
2023/01/21 06:20:46;;;;;;;;;;;8.30;99.90;;;;;;5073294;28;19905;-76
2023/01/21 06:23:12;;;;;;;;;;;8.20;99.90;;;;;;5055143;28;19923;-76
2023/01/21 06:25:39;;;;;;;;;;;8.20;99.90;;;;;;5073199;28;19904;-76
2023/01/21 06:28:05;;;;;;;;;;;8.20;99.90;;;;;;5073201;28;19905;-76
2023/01/21 06:30:31;;;;;;;;;;;8.20;99.90;;;;;;5072698;28;19939;-76
2023/01/21 06:32:57;;;;;;;;;;;8.10;99.90;;;;;;5072565;28;19939;-76
2023/01/21 06:35:23;;;;;;;;;;;8.10;99.90;;;;;;5072823;28;19908;-76
2023/01/21 06:37:49;;;;;;;;;;;8.20;99.90;;;;;;5072772;28;19957;-76
2023/01/21 06:40:15;;;;;;;;;;;8.30;99.90;;;;;;5072721;28;20308;-75
2023/01/21 06:42:43;;;;;;;;;;;8.40;99.90;;;;;;5072098;28;19904;-76
2023/01/21 06:45:09;;;;;;;;;;;8.40;99.90;;;;;;5072502;28;20344;-74
2023/01/21 06:47:38;;;;;;;;;;;8.50;99.90;;;;;;5072428;28;19959;-76
2023/01/21 06:50:05;;;;;;;;;;;8.50;99.90;;;;;;5072038;28;19904;-75
2023/01/21 06:52:31;;;;;;;;;;;8.60;99.90;;;;;;5071577;28;19999;-76
2023/01/21 06:54:57;;;;;;;;;;;8.60;99.90;;;;;;5071951;28;19993;-70
2023/01/21 06:57:23;;;;;;;;;;;8.40;99.90;;;;;;5070989;28;20360;-76
2023/01/21 06:59:49;;;;;;;;;;;8.20;99.90;;;;;;5071662;28;19958;-76
2023/01/21 07:02:16;;;;;;;;;;;8.00;99.90;;;;;;5071321;28;20326;-76
2023/01/21 07:04:43;;;;;;;;;;;8.00;99.90;;;;;;5071704;28;19920;-74
2023/01/21 07:07:09;;;;;;;;;;;8.30;99.90;;;;;;5073101;28;19905;-76
2023/01/21 07:09:35;;;;;;;;;;;8.60;99.90;;;;;;5056241;28;19909;-76
2023/01/21 07:12:01;;;;;;;;;;;9.20;99.90;;;;;;5055422;28;19958;-77
2023/01/21 07:14:28;;;;;;;;;;;9.90;99.90;;;;;;5063106;28;19969;-77
2023/01/21 07:16:55;;;;;;;;;;;10.40;99.90;;;;;;5075299;28;19912;-78
2023/01/21 07:19:22;;;;;;;;;;;11.20;99.90;;;;;;5075451;28;19926;-83
2023/01/21 07:21:48;;;;;;;;;;;11.70;99.90;;;;;;5057563;28;19995;-78
2023/01/21 07:24:13;;;;;;;;;;;11.40;99.90;;;;;;5057348;28;20003;-78
2023/01/21 07:26:40;;;;;;;;;;;11.00;99.90;;;;;;5076039;28;19912;-78
2023/01/21 07:29:06;;;;;;;;;;;10.70;99.90;;;;;;5075540;28;20283;-77
2023/01/21 07:31:32;;;;;;;;;;;10.50;99.90;;;;;;5074784;28;20053;-77
2023/01/21 07:33:58;;;;;;;;;;;10.20;99.90;;;;;;5075193;28;19904;-78
2023/01/21 07:36:23;;;;;;;;;;;9.90;99.90;;;;;;5074841;28;19904;-77
2023/01/21 07:38:51;;;;;;;;;;;9.70;99.90;;;;;;5073928;28;19931;-77
2023/01/21 07:41:17;;;;;;;;;;;9.80;99.90;;;;;;5075052;28;19942;-78
2023/01/21 07:43:45;;;;;;;;;;;10.10;99.90;;;;;;5074792;28;19926;-82
2023/01/21 07:46:11;;;;;;;;;;;10.90;99.90;;;;;;5075120;28;19905;-77
2023/01/21 07:48:37;;;;;;;;;;;11.50;99.90;;;;;;5075728;28;20007;-78
2023/01/21 07:51:03;;;;;;;;;;;11.90;99.90;;;;;;5075201;28;20310;-79
2023/01/21 07:53:28;;;;;;;;;;;12.20;99.90;;;;;;5075161;28;19991;-79
2023/01/21 07:55:54;;;;;;;;;;;12.50;99.90;;;;;;5075216;28;20047;-79
2023/01/21 07:58:20;;;;;;;;;;;12.90;99.90;;;;;;5075143;28;19950;-79
2023/01/21 08:00:46;;;;;;;;;;;12.70;99.90;;;;;;5074418;28;19904;-79
2023/01/21 08:03:11;;;;;;;;;;;12.60;99.90;;;;;;5074553;28;19908;-78
2023/01/21 08:05:38;;;;;;;;;;;12.10;99.90;;;;;;5074629;28;20042;-79
2023/01/21 08:08:04;;;;;;;;;;;11.80;99.90;;;;;;5074635;28;19904;-79
2023/01/21 08:10:29;;;;;;;;;;;12.00;99.90;;;;;;5074832;28;19911;-79
2023/01/21 08:12:55;;;;;;;;;;;12.10;99.90;;;;;;5074157;28;19930;-79
2023/01/21 08:15:21;;;;;;;;;;;11.80;99.90;;;;;;5059061;28;19905;-79
2023/01/21 08:17:47;;;;;;;;;;;12.20;99.90;;;;;;5070140;28;19905;-78
2023/01/21 08:20:14;;;;;;;;;;;11.90;99.90;;;;;;5073958;28;19914;-79
2023/01/21 08:22:40;;;;;;;;;;;11.60;99.90;;;;;;5074045;28;20433;-78
2023/01/21 08:25:07;;;;;;;;;;;10.60;99.90;;;;;;5074312;28;19912;-80
2023/01/21 08:27:32;;;;;;;;;;;10.50;99.90;;;;;;5074317;28;19915;-78
2023/01/21 08:29:58;;;;;;;;;;;10.30;99.90;;;;;;5074383;28;20208;-78
2023/01/21 08:32:24;;;;;;;;;;;10.20;99.90;;;;;;5055535;28;19956;-77
2023/01/21 08:34:50;;;;;;;;;;;10.20;99.90;;;;;;5073918;28;20363;-78
2023/01/21 08:37:16;;;;;;;;;;;10.40;99.90;;;;;;5073915;28;20216;-78
2023/01/21 08:39:41;;;;;;;;;;;10.80;99.90;;;;;;5073540;28;19904;-77
2023/01/21 08:42:07;;;;;;;;;;;11.00;99.90;;;;;;5074019;28;19975;-78
2023/01/21 08:44:34;;;;;;;;;;;11.40;99.90;;;;;;5073410;28;20336;-78
2023/01/21 08:47:00;;;;;;;;;;;11.50;99.90;;;;;;5073558;28;19930;-79
2023/01/21 08:49:26;;;;;;;;;;;11.70;99.90;;;;;;5072842;28;19905;-78
2023/01/21 08:51:52;;;;;;;;;;;11.80;99.90;;;;;;5073173;28;19965;-78
2023/01/21 08:54:17;;;;;;;;;;;12.00;99.90;;;;;;5071403;28;20010;-78
2023/01/21 08:56:43;;;;;;;;;;;12.00;99.90;;;;;;5072718;28;19915;-78
2023/01/21 08:59:09;;;;;;;;;;;11.90;99.90;;;;;;5072465;28;19904;-76
2023/01/21 09:01:39;;;;;;;;;;;11.80;99.90;;;;;;5072496;28;19904;-78
2023/01/21 09:04:05;;;;;;;;;;;11.60;99.90;;;;;;5072301;28;20318;-77
2023/01/21 09:06:31;;;;;;;;;;;11.40;99.90;;;;;;5072900;28;20285;-78
2023/01/21 09:08:57;;;;;;;;;;;11.30;99.90;;;;;;5072240;28;19904;-78
2023/01/21 09:11:23;;;;;;;;;;;11.40;99.90;;;;;;5072048;28;19916;-76
2023/01/21 09:13:49;;;;;;;;;;;11.60;99.90;;;;;;5071981;28;19904;-77
2023/01/21 09:16:16;;;;;;;;;;;11.60;99.90;;;;;;5053678;28;20214;-77
2023/01/21 09:18:42;;;;;;;;;;;11.80;99.90;;;;;;5072564;28;19904;-72
2023/01/21 09:21:09;;;;;;;;;;;11.90;99.90;;;;;;5072924;28;20041;-77
2023/01/21 09:23:35;;;;;;;;;;;12.20;99.90;;;;;;5054402;28;19908;-77
2023/01/21 09:26:11;;;;;;;;;;;12.20;99.90;;;;;;5072473;28;19912;-77
2023/01/21 09:28:38;;;;;;;;;;;12.30;99.90;;;;;;5072407;28;19908;-78
2023/01/21 09:31:05;;;;;;;;;;;12.40;99.90;;;;;;5071711;28;19969;-77
2023/01/21 09:33:31;;;;;;;;;;;12.40;99.90;;;;;;5072675;28;19938;-78
2023/01/21 09:35:58;;;;;;;;;;;12.40;99.90;;;;;;5072326;28;19927;-77
2023/01/21 09:38:25;;;;;;;;;;;12.50;99.90;;;;;;5072574;28;19942;-77
2023/01/21 09:40:51;;;;;;;;;;;12.60;99.90;;;;;;5072117;28;19910;-78
2023/01/21 09:43:30;;;;;;;;;;;12.50;99.90;;;;;;5072260;28;19942;-78
2023/01/21 09:45:58;;;;;;;;;;;12.50;99.90;;;;;;5072038;28;19913;-78
2023/01/21 09:48:38;;;;;;;;;;;12.50;99.90;;;;;;5071921;28;19959;-77
2023/01/21 09:51:13;;;;;;;;;;;12.60;99.90;;;;;;5071700;28;19904;-77
2023/01/21 09:53:48;;;;;;;;;;;12.80;99.90;;;;;;5071983;28;19908;-77
2023/01/21 09:56:26;;;;;;;;;;;13.00;99.90;;;;;;5071669;28;19911;-77
2023/01/21 09:59:01;;;;;;;;;;;13.30;99.90;;;;;;5067949;28;20000;-77
2023/01/21 10:01:32;;;;;;;;;;;13.20;99.90;;;;;;5071527;28;19905;-77
2023/01/21 10:04:05;;;;;;;;;;;13.00;99.90;;;;;;5071711;28;20366;-77
2023/01/21 10:06:42;;;;;;;;;;;12.90;99.90;;;;;;5071727;28;20002;-77
2023/01/21 10:09:14;;;;;;;;;;;12.70;99.90;;;;;;5072018;28;19974;-75
2023/01/21 10:11:48;;;;;;;;;;;12.80;99.90;;;;;;5072014;28;19944;-76
2023/01/21 10:14:23;;;;;;;;;;;12.70;99.90;;;;;;5071507;28;19976;-77
2023/01/21 10:17:04;;;;;;;;;;;12.70;99.90;;;;;;5071549;28;20328;-77
2023/01/21 10:19:35;;;;;;;;;;;12.90;99.90;;;;;;5071282;28;19995;-77
2023/01/21 10:22:02;;;;;;;;;;;12.90;99.90;;;;;;5071538;28;19984;-78
2023/01/21 10:24:45;;;;;;;;;;;13.00;99.90;;;;;;5071562;28;19913;-78
2023/01/21 10:27:22;;;;;;;;;;;13.20;99.90;;;;;;5071873;28;19912;-78
2023/01/21 10:29:50;;;;;;;;;;;13.20;99.90;;;;;;5071457;28;19941;-76
2023/01/21 10:32:19;;;;;;;;;;;13.10;99.90;;;;;;5070336;28;19955;-78
2023/01/21 10:34:49;;;;;;;;;;;13.00;99.90;;;;;;5070698;28;20272;-78
2023/01/21 10:37:34;;;;;;;;;;;13.00;99.90;;;;;;5052709;28;20019;-78
2023/01/21 10:40:17;;;;;;;;;;;13.00;99.90;;;;;;5053596;28;19912;-77
2023/01/21 10:42:47;;;;;;;;;;;12.90;99.90;;;;;;5075644;28;19908;-77
2023/01/21 10:45:16;;;;;;;;;;;13.10;99.90;;;;;;5075528;28;19914;-78
2023/01/21 10:47:48;;;;;;;;;;;13.30;99.90;;;;;;5075232;28;20271;-77
2023/01/21 10:50:20;;;;;;;;;;;13.20;99.90;;;;;;5075793;28;20344;-78
2023/01/21 10:52:51;;;;;;;;;;;13.30;99.90;;;;;;5075302;28;19908;-79
2023/01/21 10:55:26;;;;;;;;;;;13.30;99.90;;;;;;5075321;28;19908;-79
2023/01/21 10:58:00;;;;;;;;;;;13.30;99.90;;;;;;5075449;28;20303;-79
2023/01/21 11:00:32;;;;;;;;;;;13.20;99.90;;;;;;5075780;28;19905;-78
2023/01/21 11:02:59;;;;;;;;;;;13.10;99.90;;;;;;5056990;28;19920;-79
2023/01/21 11:05:25;;;;;;;;;;;13.20;99.90;;;;;;5075210;28;19909;-79
2023/01/21 11:07:52;;;;;;;;;;;13.20;99.90;;;;;;5074680;28;19911;-78
2023/01/21 11:10:25;;;;;;;;;;;13.20;99.90;;;;;;5074649;28;20006;-78
2023/01/21 11:12:52;;;;;;;;;;;13.30;99.90;;;;;;5074404;28;19963;-79
2023/01/21 11:15:18;;;;;;;;;;;13.40;99.90;;;;;;5073838;28;19927;-79
2023/01/21 11:17:46;;;;;;;;;;;13.30;99.90;;;;;;5073350;28;19905;-79
2023/01/21 11:20:20;;;;;;;;;;;13.20;99.90;;;;;;5053751;28;19913;-79
2023/01/21 11:22:46;;;;;;;;;;;13.30;99.90;;;;;;5072605;28;20316;-78
2023/01/21 11:25:30;;;;;;;;;;;13.30;99.90;;;;;;5073645;28;19923;-78
2023/01/21 11:27:56;;;;;;;;;;;13.30;99.90;;;;;;5073280;28;20243;-78
2023/01/21 11:30:32;;;;;;;;;;;13.40;99.90;;;;;;5073459;28;19996;-77
2023/01/21 11:33:11;;;;;;;;;;;13.30;99.90;;;;;;5074360;28;19961;-77
2023/01/21 11:35:37;;;;;;;;;;;13.20;99.90;;;;;;5057872;28;19908;-78
2023/01/21 11:38:03;;;;;;;;;;;13.00;99.90;;;;;;5074919;28;19928;-77
2023/01/21 11:40:29;;;;;;;;;;;13.10;99.90;;;;;;5075460;28;20321;-77
2023/01/21 11:42:56;;;;;;;;;;;13.00;99.90;;;;;;5075066;28;20003;-78
2023/01/21 11:45:21;;;;;;;;;;;13.00;99.90;;;;;;5074743;28;20007;-77
2023/01/21 11:47:48;;;;;;;;;;;13.10;99.90;;;;;;5074450;28;20248;-79
2023/01/21 11:50:14;;;;;;;;;;;13.20;99.90;;;;;;5074981;28;19904;-78
2023/01/21 11:52:40;;;;;;;;;;;13.20;99.90;;;;;;5074761;28;19911;-78
2023/01/21 11:55:20;;;;;;;;;;;13.10;99.90;;;;;;5075144;28;19905;-78
2023/01/21 11:57:53;;;;;;;;;;;13.10;99.90;;;;;;5075399;28;19947;-78
2023/01/21 12:00:21;;;;;;;;;;;13.10;99.90;;;;;;5074813;28;19908;-79
2023/01/21 12:02:51;;;;;;;;;;;13.00;99.90;;;;;;5074634;28;19911;-79
2023/01/21 12:05:22;;;;;;;;;;;13.00;99.90;;;;;;5055727;28;19912;-79
2023/01/21 12:07:48;;;;;;;;;;;13.20;99.90;;;;;;5055104;28;19912;-77
2023/01/21 12:10:14;;;;;;;;;;;13.20;99.90;;;;;;5056265;28;19905;-78
2023/01/21 12:12:49;;;;;;;;;;;13.20;99.90;;;;;;5054887;28;20265;-79
2023/01/21 12:15:15;;;;;;;;;;;13.20;99.90;;;;;;5068931;28;19999;-78
2023/01/21 12:17:44;;;;;;;;;;;13.20;99.90;;;;;;5075790;28;19943;-79
2023/01/21 12:20:28;;;;;;;;;;;13.10;99.90;;;;;;5075094;28;19904;-79
2023/01/21 12:23:06;;;;;;;;;;;13.10;99.90;;;;;;5075158;28;20235;-79
2023/01/21 12:25:43;;;;;;;;;;;13.00;99.90;;;;;;5074774;28;19912;-79
2023/01/21 12:28:35;;;;;;;;;;;13.00;99.90;;;;;;5074938;28;20011;-80
2023/01/21 12:31:10;;;;;;;;;;;13.10;99.90;;;;;;4992289;28;20403;-79
2023/01/21 12:33:43;;;;;;;;;;;13.00;99.90;;;;;;4993000;28;20349;-79
2023/01/21 12:36:13;;;;;;;;;;;13.20;99.90;;;;;;4992960;28;19909;-79
2023/01/21 12:38:45;;;;;;;;;;;13.30;99.90;;;;;;4993085;28;19913;-80
2023/01/21 12:41:27;;;;;;;;;;;13.20;99.90;;;;;;4993434;28;19906;-80
2023/01/21 12:43:56;;;;;;;;;;;13.20;99.90;;;;;;4992191;28;19928;-79
2023/01/21 12:46:24;;;;;;;;;;;13.40;99.90;;;;;;4992651;28;20358;-79
2023/01/21 12:48:52;;;;;;;;;;;13.40;99.90;;;;;;4992139;28;19917;-80
2023/01/21 12:51:21;;;;;;;;;;;13.40;99.90;;;;;;4992489;28;20300;-79
2023/01/21 12:53:59;;;;;;;;;;;13.40;99.90;;;;;;4992624;28;19953;-78
2023/01/21 12:56:39;;;;;;;;;;;13.30;99.90;;;;;;4996368;28;19905;-79
2023/01/21 12:59:26;;;;;;;;;;;13.30;99.90;;;;;;5012314;28;19905;-79
2023/01/21 13:02:12;;;;;;;;;;;13.40;99.90;;;;;;4954285;28;19938;-78
2023/01/21 13:04:47;;;;;;;;;;;13.40;99.90;;;;;;4956620;28;19961;-76
2023/01/21 13:07:25;;;;;;;;;;;13.30;99.90;;;;;;4957208;28;19906;-80
2023/01/21 13:09:54;;;;;;;;;;;13.10;99.90;;;;;;4971784;28;19906;-80
2023/01/21 13:12:24;;;;;;;;;;;13.10;99.90;;;;;;4978615;28;19906;-79
2023/01/21 13:14:54;;;;;;;;;;;13.00;99.90;;;;;;4990864;28;19970;-79
2023/01/21 13:17:26;;;;;;;;;;;13.00;99.90;;;;;;4990964;28;19906;-75
2023/01/21 13:19:52;;;;;;;;;;;13.00;99.90;;;;;;4976228;28;20352;-75
2023/01/21 13:22:32;;;;;;;;;;;12.90;99.90;;;;;;4983184;28;19906;-78
2023/01/21 13:25:05;;;;;;;;;;;12.70;99.90;;;;;;4976356;28;19976;-79
2023/01/21 13:27:50;;;;;;;;;;;12.70;99.90;;;;;;4975809;28;19949;-78
2023/01/21 13:30:24;;;;;;;;;;;12.70;99.90;;;;;;4988783;28;20008;-78
2023/01/21 13:32:53;;;;;;;;;;;12.70;99.90;;;;;;4979003;28;19917;-79
2023/01/21 13:35:25;;;;;;;;;;;12.90;99.90;;;;;;4992303;28;20039;-74
2023/01/21 13:37:59;;;;;;;;;;;12.90;99.90;;;;;;4996860;28;19945;-79
2023/01/21 13:40:43;;;;;;;;;;;13.10;99.90;;;;;;5073448;28;20007;-77
2023/01/21 13:43:12;;;;;;;;;;;13.20;99.90;;;;;;5073729;28;19911;-79
2023/01/21 13:45:46;;;;;;;;;;;13.10;99.90;;;;;;5055917;28;19993;-80
2023/01/21 13:48:24;;;;;;;;;;;13.10;99.90;;;;;;5053107;28;19905;-79
2023/01/21 13:50:52;;;;;;;;;;;13.20;99.90;;;;;;5051921;28;19951;-80
2023/01/21 13:53:37;;;;;;;;;;;13.00;99.90;;;;;;5053263;28;19931;-80
2023/01/21 13:56:21;;;;;;;;;;;12.80;99.90;;;;;;5053543;28;19976;-79
2023/01/21 13:58:52;;;;;;;;;;;13.00;99.90;;;;;;5053079;28;19905;-80
2023/01/21 14:01:18;;;;;;;;;;;12.80;99.90;;;;;;5052808;28;20642;-79
2023/01/21 14:04:04;;;;;;;;;;;12.90;99.90;;;;;;5053422;28;20021;-75
2023/01/21 14:06:35;;;;;;;;;;;12.90;99.90;;;;;;5052385;28;19905;-75
2023/01/21 14:09:06;;;;;;;;;;;12.70;99.90;;;;;;5053160;28;19904;-79
2023/01/21 14:11:48;;;;;;;;;;;12.90;99.90;;;;;;5051797;28;19908;-80
2023/01/21 14:14:28;;;;;;;;;;;12.90;99.90;;;;;;5032877;28;19954;-79
2023/01/21 14:17:13;;;;;;;;;;;12.90;99.90;;;;;;5050283;28;20017;-79
2023/01/21 14:19:47;;;;;;;;;;;12.70;99.90;;;;;;5033036;28;19915;-79
2023/01/21 14:22:19;;;;;;;;;;;12.70;99.90;;;;;;5052188;28;19909;-79
2023/01/21 14:24:53;;;;;;;;;;;12.60;99.90;;;;;;5051412;28;19912;-79
2023/01/21 14:27:22;;;;;;;;;;;12.40;99.90;;;;;;5059539;28;20463;-79
2023/01/21 14:30:17;;;;;;;;;;;12.20;99.90;;;;;;5056291;28;19920;-79
2023/01/21 14:32:47;;;;;;;;;;;11.90;99.90;;;;;;4984972;28;19924;-79
2023/01/21 14:35:23;;;;;;;;;;;11.50;99.90;;;;;;4990096;28;20572;-80
2023/01/21 14:37:54;;;;;;;;;;;11.30;99.90;;;;;;5001892;28;19995;-77
2023/01/21 14:40:26;;;;;;;;;;;11.20;99.90;;;;;;5002529;28;19905;-79